sensor_id;sensor_type;location;lat;lon;timestamp;temperature;humidity
13707;DHT22;6925;47.816;13.072;2023-04-05T00:00:13;4.90;50.00
13707;DHT22;6925;47.816;13.072;2023-04-05T00:02:40;4.70;50.10
13707;DHT22;6925;47.816;13.072;2023-04-05T00:05:09;4.70;50.40
13707;DHT22;6925;47.816;13.072;2023-04-05T00:07:37;4.70;50.50
13707;DHT22;6925;47.816;13.072;2023-04-05T00:10:04;4.60;50.50
13707;DHT22;6925;47.816;13.072;2023-04-05T00:12:32;4.50;50.90
13707;DHT22;6925;47.816;13.072;2023-04-05T00:15:01;4.60;51.30
13707;DHT22;6925;47.816;13.072;2023-04-05T00:17:29;4.60;51.20
13707;DHT22;6925;47.816;13.072;2023-04-05T00:19:56;4.60;51.50
13707;DHT22;6925;47.816;13.072;2023-04-05T00:22:24;4.70;51.60
13707;DHT22;6925;47.816;13.072;2023-04-05T00:24:56;4.70;51.50
13707;DHT22;6925;47.816;13.072;2023-04-05T00:27:23;4.70;51.50
13707;DHT22;6925;47.816;13.072;2023-04-05T00:29:51;4.70;50.90
13707;DHT22;6925;47.816;13.072;2023-04-05T00:32:19;4.60;50.90
13707;DHT22;6925;47.816;13.072;2023-04-05T00:34:47;4.60;51.20
13707;DHT22;6925;47.816;13.072;2023-04-05T00:37:15;4.70;51.30
13707;DHT22;6925;47.816;13.072;2023-04-05T00:39:42;4.70;51.50
13707;DHT22;6925;47.816;13.072;2023-04-05T00:42:10;4.70;51.90
13707;DHT22;6925;47.816;13.072;2023-04-05T00:44:37;4.70;52.10
13707;DHT22;6925;47.816;13.072;2023-04-05T00:47:05;4.70;52.20
13707;DHT22;6925;47.816;13.072;2023-04-05T00:49:35;4.70;52.10
13707;DHT22;6925;47.816;13.072;2023-04-05T00:52:02;4.60;52.60
13707;DHT22;6925;47.816;13.072;2023-04-05T00:54:29;4.60;52.50
13707;DHT22;6925;47.816;13.072;2023-04-05T00:56:57;4.60;52.70
13707;DHT22;6925;47.816;13.072;2023-04-05T00:59:27;4.60;52.80
13707;DHT22;6925;47.816;13.072;2023-04-05T01:02:00;4.60;53.30
13707;DHT22;6925;47.816;13.072;2023-04-05T01:04:31;4.60;53.30
13707;DHT22;6925;47.816;13.072;2023-04-05T01:07:08;4.50;53.60
13707;DHT22;6925;47.816;13.072;2023-04-05T01:09:44;4.50;53.60
13707;DHT22;6925;47.816;13.072;2023-04-05T01:12:16;4.50;53.70
13707;DHT22;6925;47.816;13.072;2023-04-05T01:14:48;4.50;53.90
13707;DHT22;6925;47.816;13.072;2023-04-05T01:17:17;4.50;54.00
13707;DHT22;6925;47.816;13.072;2023-04-05T01:19:48;4.50;54.30
13707;DHT22;6925;47.816;13.072;2023-04-05T01:29:04;4.60;54.20
13707;DHT22;6925;47.816;13.072;2023-04-05T01:31:42;4.60;53.90
13707;DHT22;6925;47.816;13.072;2023-04-05T01:34:19;4.60;53.30
13707;DHT22;6925;47.816;13.072;2023-04-05T01:36:54;4.60;52.70
13707;DHT22;6925;47.816;13.072;2023-04-05T01:39:23;4.60;52.70
13707;DHT22;6925;47.816;13.072;2023-04-05T01:41:51;4.50;52.40
13707;DHT22;6925;47.816;13.072;2023-04-05T01:44:23;4.50;52.40
13707;DHT22;6925;47.816;13.072;2023-04-05T01:46:52;4.50;52.30
13707;DHT22;6925;47.816;13.072;2023-04-05T01:49:20;4.40;51.90
13707;DHT22;6925;47.816;13.072;2023-04-05T01:51:47;4.40;51.90
13707;DHT22;6925;47.816;13.072;2023-04-05T01:54:14;4.30;52.70
13707;DHT22;6925;47.816;13.072;2023-04-05T01:56:42;4.30;52.70
13707;DHT22;6925;47.816;13.072;2023-04-05T01:59:09;4.30;52.30
13707;DHT22;6925;47.816;13.072;2023-04-05T02:01:36;4.20;52.30
13707;DHT22;6925;47.816;13.072;2023-04-05T02:04:05;4.20;53.10
13707;DHT22;6925;47.816;13.072;2023-04-05T02:06:32;4.20;53.20
13707;DHT22;6925;47.816;13.072;2023-04-05T02:08:59;4.20;53.90
13707;DHT22;6925;47.816;13.072;2023-04-05T02:11:27;4.30;53.80
13707;DHT22;6925;47.816;13.072;2023-04-05T02:13:54;4.30;53.80
13707;DHT22;6925;47.816;13.072;2023-04-05T02:16:21;4.20;53.80
13707;DHT22;6925;47.816;13.072;2023-04-05T02:18:50;4.20;53.90
13707;DHT22;6925;47.816;13.072;2023-04-05T02:21:18;4.10;53.70
13707;DHT22;6925;47.816;13.072;2023-04-05T02:23:46;4.00;53.40
13707;DHT22;6925;47.816;13.072;2023-04-05T02:26:16;4.00;53.70
13707;DHT22;6925;47.816;13.072;2023-04-05T02:28:44;4.10;53.80
13707;DHT22;6925;47.816;13.072;2023-04-05T02:31:12;4.10;53.80
13707;DHT22;6925;47.816;13.072;2023-04-05T02:33:39;4.00;53.50
13707;DHT22;6925;47.816;13.072;2023-04-05T02:36:09;3.90;53.70
13707;DHT22;6925;47.816;13.072;2023-04-05T02:38:38;3.90;53.30
13707;DHT22;6925;47.816;13.072;2023-04-05T02:41:08;3.90;53.80
13707;DHT22;6925;47.816;13.072;2023-04-05T02:43:36;3.90;53.90
13707;DHT22;6925;47.816;13.072;2023-04-05T02:46:03;3.90;53.80
13707;DHT22;6925;47.816;13.072;2023-04-05T02:48:31;3.80;53.80
13707;DHT22;6925;47.816;13.072;2023-04-05T02:50:58;3.80;53.90
13707;DHT22;6925;47.816;13.072;2023-04-05T02:53:25;3.90;54.30
13707;DHT22;6925;47.816;13.072;2023-04-05T02:55:55;3.90;54.20
13707;DHT22;6925;47.816;13.072;2023-04-05T02:58:23;3.90;54.30
13707;DHT22;6925;47.816;13.072;2023-04-05T03:00:50;3.90;54.90
13707;DHT22;6925;47.816;13.072;2023-04-05T03:03:19;3.80;55.00
13707;DHT22;6925;47.816;13.072;2023-04-05T03:05:47;3.80;54.70
13707;DHT22;6925;47.816;13.072;2023-04-05T03:08:14;3.70;54.50
13707;DHT22;6925;47.816;13.072;2023-04-05T03:10:44;3.70;54.40
13707;DHT22;6925;47.816;13.072;2023-04-05T03:13:14;3.70;54.50
13707;DHT22;6925;47.816;13.072;2023-04-05T03:15:41;3.60;54.20
13707;DHT22;6925;47.816;13.072;2023-04-05T03:18:09;3.50;54.20
13707;DHT22;6925;47.816;13.072;2023-04-05T03:20:36;3.50;54.70
13707;DHT22;6925;47.816;13.072;2023-04-05T03:23:05;3.50;54.70
13707;DHT22;6925;47.816;13.072;2023-04-05T03:25:34;3.60;55.20
13707;DHT22;6925;47.816;13.072;2023-04-05T03:28:02;3.60;54.80
13707;DHT22;6925;47.816;13.072;2023-04-05T03:30:32;3.60;54.50
13707;DHT22;6925;47.816;13.072;2023-04-05T03:32:59;3.50;54.30
13707;DHT22;6925;47.816;13.072;2023-04-05T03:35:27;3.60;54.60
13707;DHT22;6925;47.816;13.072;2023-04-05T03:37:55;3.50;54.60
13707;DHT22;6925;47.816;13.072;2023-04-05T03:40:23;3.50;54.70
13707;DHT22;6925;47.816;13.072;2023-04-05T03:42:50;3.50;54.80
13707;DHT22;6925;47.816;13.072;2023-04-05T03:45:18;3.40;54.70
13707;DHT22;6925;47.816;13.072;2023-04-05T03:47:47;3.30;54.60
13707;DHT22;6925;47.816;13.072;2023-04-05T03:50:14;3.20;54.90
13707;DHT22;6925;47.816;13.072;2023-04-05T03:52:41;3.20;54.90
13707;DHT22;6925;47.816;13.072;2023-04-05T03:55:09;3.30;54.90
13707;DHT22;6925;47.816;13.072;2023-04-05T03:57:39;3.30;54.80
13707;DHT22;6925;47.816;13.072;2023-04-05T04:00:07;3.30;55.00
13707;DHT22;6925;47.816;13.072;2023-04-05T04:02:42;3.40;55.40
13707;DHT22;6925;47.816;13.072;2023-04-05T04:05:12;3.30;55.50
13707;DHT22;6925;47.816;13.072;2023-04-05T04:07:40;3.30;55.40
13707;DHT22;6925;47.816;13.072;2023-04-05T04:10:08;3.30;55.50
13707;DHT22;6925;47.816;13.072;2023-04-05T04:12:36;3.40;56.10
13707;DHT22;6925;47.816;13.072;2023-04-05T04:15:06;3.40;55.60
13707;DHT22;6925;47.816;13.072;2023-04-05T04:17:35;3.40;55.70
13707;DHT22;6925;47.816;13.072;2023-04-05T04:20:03;3.40;55.90
13707;DHT22;6925;47.816;13.072;2023-04-05T04:22:37;3.40;55.80
13707;DHT22;6925;47.816;13.072;2023-04-05T04:25:07;3.40;55.90
13707;DHT22;6925;47.816;13.072;2023-04-05T04:27:36;3.40;55.60
13707;DHT22;6925;47.816;13.072;2023-04-05T04:30:10;3.30;55.70
13707;DHT22;6925;47.816;13.072;2023-04-05T04:32:38;3.40;55.90
13707;DHT22;6925;47.816;13.072;2023-04-05T04:35:17;3.30;56.30
13707;DHT22;6925;47.816;13.072;2023-04-05T04:37:49;3.30;55.70
13707;DHT22;6925;47.816;13.072;2023-04-05T04:40:17;3.30;55.60
13707;DHT22;6925;47.816;13.072;2023-04-05T04:42:46;3.30;55.70
13707;DHT22;6925;47.816;13.072;2023-04-05T04:45:14;3.30;55.70
13707;DHT22;6925;47.816;13.072;2023-04-05T04:47:42;3.20;55.70
13707;DHT22;6925;47.816;13.072;2023-04-05T04:50:10;3.20;55.90
13707;DHT22;6925;47.816;13.072;2023-04-05T04:52:38;3.20;55.90
13707;DHT22;6925;47.816;13.072;2023-04-05T04:55:12;3.20;55.60
13707;DHT22;6925;47.816;13.072;2023-04-05T04:57:43;3.20;55.70
13707;DHT22;6925;47.816;13.072;2023-04-05T05:00:13;3.20;55.90
13707;DHT22;6925;47.816;13.072;2023-04-05T05:02:42;3.20;56.10
13707;DHT22;6925;47.816;13.072;2023-04-05T05:05:12;3.20;55.90
13707;DHT22;6925;47.816;13.072;2023-04-05T05:07:42;3.20;56.30
13707;DHT22;6925;47.816;13.072;2023-04-05T05:10:13;3.20;56.50
13707;DHT22;6925;47.816;13.072;2023-04-05T05:12:41;3.20;56.60
13707;DHT22;6925;47.816;13.072;2023-04-05T05:15:10;3.20;56.90
13707;DHT22;6925;47.816;13.072;2023-04-05T05:17:39;3.30;56.60
13707;DHT22;6925;47.816;13.072;2023-04-05T05:20:10;3.30;56.60
13707;DHT22;6925;47.816;13.072;2023-04-05T05:22:38;3.40;56.50
13707;DHT22;6925;47.816;13.072;2023-04-05T05:25:08;3.30;56.50
13707;DHT22;6925;47.816;13.072;2023-04-05T05:27:39;3.30;56.60
13707;DHT22;6925;47.816;13.072;2023-04-05T05:30:08;3.30;56.50
13707;DHT22;6925;47.816;13.072;2023-04-05T05:32:36;3.30;56.50
13707;DHT22;6925;47.816;13.072;2023-04-05T05:35:06;3.30;56.40
13707;DHT22;6925;47.816;13.072;2023-04-05T05:37:35;3.40;56.60
13707;DHT22;6925;47.816;13.072;2023-04-05T05:40:06;3.40;56.80
13707;DHT22;6925;47.816;13.072;2023-04-05T05:42:39;3.50;56.80
13707;DHT22;6925;47.816;13.072;2023-04-05T05:45:09;3.40;56.80
13707;DHT22;6925;47.816;13.072;2023-04-05T05:47:38;3.50;56.60
13707;DHT22;6925;47.816;13.072;2023-04-05T05:50:07;3.50;56.40
13707;DHT22;6925;47.816;13.072;2023-04-05T05:52:37;3.50;56.20
13707;DHT22;6925;47.816;13.072;2023-04-05T05:55:06;3.50;56.10
13707;DHT22;6925;47.816;13.072;2023-04-05T05:57:34;3.50;56.10
13707;DHT22;6925;47.816;13.072;2023-04-05T06:00:06;3.60;56.10
13707;DHT22;6925;47.816;13.072;2023-04-05T06:02:35;3.60;56.40
13707;DHT22;6925;47.816;13.072;2023-04-05T06:05:03;3.60;56.50
13707;DHT22;6925;47.816;13.072;2023-04-05T06:07:34;3.60;56.60
13707;DHT22;6925;47.816;13.072;2023-04-05T06:10:02;3.70;56.90
13707;DHT22;6925;47.816;13.072;2023-04-05T06:12:29;3.70;56.80
13707;DHT22;6925;47.816;13.072;2023-04-05T06:14:56;3.80;56.60
13707;DHT22;6925;47.816;13.072;2023-04-05T06:17:25;3.80;56.70
13707;DHT22;6925;47.816;13.072;2023-04-05T06:19:53;3.80;56.30
13707;DHT22;6925;47.816;13.072;2023-04-05T06:22:20;3.70;56.00
13707;DHT22;6925;47.816;13.072;2023-04-05T06:24:48;3.70;55.70
13707;DHT22;6925;47.816;13.072;2023-04-05T06:27:15;3.80;55.90
13707;DHT22;6925;47.816;13.072;2023-04-05T06:29:42;3.80;56.20
13707;DHT22;6925;47.816;13.072;2023-04-05T06:32:12;3.80;56.20
13707;DHT22;6925;47.816;13.072;2023-04-05T06:34:43;3.80;56.60
13707;DHT22;6925;47.816;13.072;2023-04-05T06:37:24;3.80;56.10
13707;DHT22;6925;47.816;13.072;2023-04-05T06:39:54;3.70;56.20
13707;DHT22;6925;47.816;13.072;2023-04-05T06:42:28;3.80;56.30
13707;DHT22;6925;47.816;13.072;2023-04-05T06:45:04;3.80;56.30
13707;DHT22;6925;47.816;13.072;2023-04-05T06:47:41;3.70;55.70
13707;DHT22;6925;47.816;13.072;2023-04-05T07:32:30;3.70;57.00
13707;DHT22;6925;47.816;13.072;2023-04-05T07:35:17;3.80;56.70
13707;DHT22;6925;47.816;13.072;2023-04-05T07:37:52;4.00;56.40
13707;DHT22;6925;47.816;13.072;2023-04-05T07:40:20;4.10;56.50
13707;DHT22;6925;47.816;13.072;2023-04-05T07:42:58;4.20;56.50
13707;DHT22;6925;47.816;13.072;2023-04-05T07:45:50;4.20;56.50
13707;DHT22;6925;47.816;13.072;2023-04-05T07:48:23;4.20;57.00
13707;DHT22;6925;47.816;13.072;2023-04-05T07:50:54;4.30;57.40
13707;DHT22;6925;47.816;13.072;2023-04-05T07:53:34;4.40;57.20
13707;DHT22;6925;47.816;13.072;2023-04-05T07:56:06;4.50;57.50
13707;DHT22;6925;47.816;13.072;2023-04-05T07:58:36;4.50;57.20
13707;DHT22;6925;47.816;13.072;2023-04-05T08:01:13;4.50;57.50
13707;DHT22;6925;47.816;13.072;2023-04-05T08:04:13;4.50;57.40
13707;DHT22;6925;47.816;13.072;2023-04-05T08:06:45;4.60;57.60
13707;DHT22;6925;47.816;13.072;2023-04-05T08:10:43;4.70;57.90
13707;DHT22;6925;47.816;13.072;2023-04-05T08:13:12;4.70;58.60
13707;DHT22;6925;47.816;13.072;2023-04-05T08:15:45;4.80;58.10
13707;DHT22;6925;47.816;13.072;2023-04-05T08:18:13;4.90;57.90
13707;DHT22;6925;47.816;13.072;2023-04-05T08:20:50;4.90;58.00
13707;DHT22;6925;47.816;13.072;2023-04-05T08:23:17;4.90;58.10
13707;DHT22;6925;47.816;13.072;2023-04-05T08:25:45;5.00;58.00
13707;DHT22;6925;47.816;13.072;2023-04-05T08:28:13;5.00;58.40
13707;DHT22;6925;47.816;13.072;2023-04-05T08:30:47;5.00;58.10
13707;DHT22;6925;47.816;13.072;2023-04-05T08:33:41;5.00;58.30
13707;DHT22;6925;47.816;13.072;2023-04-05T08:36:17;5.00;58.30
13707;DHT22;6925;47.816;13.072;2023-04-05T08:38:46;5.10;58.20
13707;DHT22;6925;47.816;13.072;2023-04-05T08:41:19;5.10;58.30
13707;DHT22;6925;47.816;13.072;2023-04-05T08:43:54;5.20;58.00
13707;DHT22;6925;47.816;13.072;2023-04-05T08:46:23;5.30;57.90
13707;DHT22;6925;47.816;13.072;2023-04-05T08:48:57;5.40;58.40
13707;DHT22;6925;47.816;13.072;2023-04-05T08:51:31;5.60;58.40
13707;DHT22;6925;47.816;13.072;2023-04-05T08:53:59;5.70;56.90
13707;DHT22;6925;47.816;13.072;2023-04-05T08:56:38;5.70;56.30
13707;DHT22;6925;47.816;13.072;2023-04-05T08:59:10;5.80;56.70
13707;DHT22;6925;47.816;13.072;2023-04-05T09:02:02;5.90;56.40
13707;DHT22;6925;47.816;13.072;2023-04-05T09:04:52;6.20;55.90
13707;DHT22;6925;47.816;13.072;2023-04-05T09:07:36;6.10;53.80
13707;DHT22;6925;47.816;13.072;2023-04-05T09:10:15;6.10;54.10
13707;DHT22;6925;47.816;13.072;2023-04-05T09:12:46;6.30;55.10
13707;DHT22;6925;47.816;13.072;2023-04-05T09:15:20;6.60;54.40
13707;DHT22;6925;47.816;13.072;2023-04-05T09:18:09;6.60;53.60
13707;DHT22;6925;47.816;13.072;2023-04-05T09:20:43;6.80;52.70
13707;DHT22;6925;47.816;13.072;2023-04-05T09:23:49;6.90;51.10
13707;DHT22;6925;47.816;13.072;2023-04-05T09:26:18;6.70;50.10
13707;DHT22;6925;47.816;13.072;2023-04-05T09:28:46;6.70;49.80
13707;DHT22;6925;47.816;13.072;2023-04-05T09:31:30;6.60;49.10
13707;DHT22;6925;47.816;13.072;2023-04-05T09:33:58;6.60;49.40
13707;DHT22;6925;47.816;13.072;2023-04-05T09:36:27;6.60;49.40
13707;DHT22;6925;47.816;13.072;2023-04-05T09:39:08;6.70;48.90
13707;DHT22;6925;47.816;13.072;2023-04-05T09:41:36;6.80;49.50
13707;DHT22;6925;47.816;13.072;2023-04-05T09:44:06;7.00;49.40
13707;DHT22;6925;47.816;13.072;2023-04-05T09:46:35;7.10;48.90
13707;DHT22;6925;47.816;13.072;2023-04-05T09:49:03;7.20;49.60
13707;DHT22;6925;47.816;13.072;2023-04-05T09:51:33;7.30;49.20
13707;DHT22;6925;47.816;13.072;2023-04-05T09:54:07;7.60;50.80
13707;DHT22;6925;47.816;13.072;2023-04-05T09:56:36;7.90;50.50
13707;DHT22;6925;47.816;13.072;2023-04-05T09:59:07;8.20;50.80
13707;DHT22;6925;47.816;13.072;2023-04-05T10:01:37;8.50;49.10
13707;DHT22;6925;47.816;13.072;2023-04-05T10:04:06;8.70;47.80
13707;DHT22;6925;47.816;13.072;2023-04-05T10:06:36;9.00;49.90
13707;DHT22;6925;47.816;13.072;2023-04-05T10:09:18;9.40;49.10
13707;DHT22;6925;47.816;13.072;2023-04-05T10:11:54;9.60;47.80
13707;DHT22;6925;47.816;13.072;2023-04-05T10:14:28;9.80;48.80
13707;DHT22;6925;47.816;13.072;2023-04-05T10:17:08;10.20;47.30
13707;DHT22;6925;47.816;13.072;2023-04-05T10:20:01;10.40;43.50
13707;DHT22;6925;47.816;13.072;2023-04-05T10:23:03;10.40;44.30
13707;DHT22;6925;47.816;13.072;2023-04-05T12:23:19;16.60;32.40
13707;DHT22;6925;47.816;13.072;2023-04-05T12:25:54;16.90;32.30
13707;DHT22;6925;47.816;13.072;2023-04-05T12:28:49;17.20;34.20
13707;DHT22;6925;47.816;13.072;2023-04-05T12:31:40;17.50;30.10
13707;DHT22;6925;47.816;13.072;2023-04-05T12:34:14;17.40;31.80
13707;DHT22;6925;47.816;13.072;2023-04-05T12:36:45;17.50;31.00
13707;DHT22;6925;47.816;13.072;2023-04-05T12:39:22;17.70;32.60
13707;DHT22;6925;47.816;13.072;2023-04-05T12:42:15;17.80;29.90
13707;DHT22;6925;47.816;13.072;2023-04-05T12:45:02;17.90;29.80
13707;DHT22;6925;47.816;13.072;2023-04-05T12:47:57;17.80;27.50
13707;DHT22;6925;47.816;13.072;2023-04-05T12:50:33;17.20;28.10
13707;DHT22;6925;47.816;13.072;2023-04-05T12:53:25;17.10;29.50
13707;DHT22;6925;47.816;13.072;2023-04-05T12:56:06;17.40;29.90
13707;DHT22;6925;47.816;13.072;2023-04-05T12:58:45;17.70;30.30
13707;DHT22;6925;47.816;13.072;2023-04-05T13:01:42;18.10;31.50
13707;DHT22;6925;47.816;13.072;2023-04-05T13:04:22;18.70;31.70
13707;DHT22;6925;47.816;13.072;2023-04-05T13:07:11;18.90;29.40
13707;DHT22;6925;47.816;13.072;2023-04-05T14:14:09;19.70;28.20
13707;DHT22;6925;47.816;13.072;2023-04-05T14:16:39;19.80;27.10
13707;DHT22;6925;47.816;13.072;2023-04-05T14:19:13;20.00;27.70
13707;DHT22;6925;47.816;13.072;2023-04-05T14:21:47;20.20;27.50
13707;DHT22;6925;47.816;13.072;2023-04-05T15:33:12;18.10;25.90
13707;DHT22;6925;47.816;13.072;2023-04-05T15:35:39;18.00;25.80
13707;DHT22;6925;47.816;13.072;2023-04-05T15:38:08;18.00;27.00
13707;DHT22;6925;47.816;13.072;2023-04-05T15:40:36;17.90;26.00
13707;DHT22;6925;47.816;13.072;2023-04-05T15:43:04;17.80;26.40
13707;DHT22;6925;47.816;13.072;2023-04-05T15:45:32;17.70;27.10
13707;DHT22;6925;47.816;13.072;2023-04-05T15:48:02;17.80;27.40
13707;DHT22;6925;47.816;13.072;2023-04-05T15:50:31;17.90;27.10
13707;DHT22;6925;47.816;13.072;2023-04-05T15:52:58;17.90;27.10
13707;DHT22;6925;47.816;13.072;2023-04-05T15:55:26;17.80;27.20
13707;DHT22;6925;47.816;13.072;2023-04-05T15:57:53;17.70;26.90
13707;DHT22;6925;47.816;13.072;2023-04-05T16:00:22;17.70;27.20
13707;DHT22;6925;47.816;13.072;2023-04-05T16:02:51;17.60;26.80
13707;DHT22;6925;47.816;13.072;2023-04-05T16:05:20;17.40;26.50
13707;DHT22;6925;47.816;13.072;2023-04-05T16:07:48;17.30;27.10
13707;DHT22;6925;47.816;13.072;2023-04-05T16:10:31;17.20;26.80
13707;DHT22;6925;47.816;13.072;2023-04-05T16:13:09;17.10;27.90
13707;DHT22;6925;47.816;13.072;2023-04-05T16:15:37;17.00;27.00
13707;DHT22;6925;47.816;13.072;2023-04-05T16:18:04;16.70;26.30
13707;DHT22;6925;47.816;13.072;2023-04-05T16:20:33;16.30;26.10
13707;DHT22;6925;47.816;13.072;2023-04-05T16:23:03;15.90;26.70
13707;DHT22;6925;47.816;13.072;2023-04-05T16:25:30;15.70;27.20
13707;DHT22;6925;47.816;13.072;2023-04-05T16:27:57;15.70;27.60
13707;DHT22;6925;47.816;13.072;2023-04-05T16:30:24;15.70;28.00
13707;DHT22;6925;47.816;13.072;2023-04-05T16:32:54;15.50;27.40
13707;DHT22;6925;47.816;13.072;2023-04-05T16:35:24;15.30;27.00
13707;DHT22;6925;47.816;13.072;2023-04-05T16:37:53;14.90;26.90
13707;DHT22;6925;47.816;13.072;2023-04-05T16:40:23;14.70;27.40
13707;DHT22;6925;47.816;13.072;2023-04-05T16:42:51;14.50;27.40
13707;DHT22;6925;47.816;13.072;2023-04-05T16:45:19;14.40;28.40
13707;DHT22;6925;47.816;13.072;2023-04-05T16:47:46;14.30;27.80
13707;DHT22;6925;47.816;13.072;2023-04-05T16:50:14;14.20;27.70
13707;DHT22;6925;47.816;13.072;2023-04-05T16:52:41;14.10;28.00
13707;DHT22;6925;47.816;13.072;2023-04-05T16:55:09;14.10;28.30
13707;DHT22;6925;47.816;13.072;2023-04-05T16:57:38;13.90;28.30
13707;DHT22;6925;47.816;13.072;2023-04-05T17:00:06;13.90;28.70
13707;DHT22;6925;47.816;13.072;2023-04-05T17:02:33;13.90;28.80
13707;DHT22;6925;47.816;13.072;2023-04-05T17:05:00;13.90;29.30
13707;DHT22;6925;47.816;13.072;2023-04-05T17:07:28;13.80;29.30
13707;DHT22;6925;47.816;13.072;2023-04-05T17:09:55;13.70;29.70
13707;DHT22;6925;47.816;13.072;2023-04-05T17:12:24;13.50;30.00
13707;DHT22;6925;47.816;13.072;2023-04-05T17:14:53;13.40;30.60
13707;DHT22;6925;47.816;13.072;2023-04-05T17:17:20;13.30;31.00
13707;DHT22;6925;47.816;13.072;2023-04-05T17:19:47;13.20;30.60
13707;DHT22;6925;47.816;13.072;2023-04-05T17:22:14;13.10;31.40
13707;DHT22;6925;47.816;13.072;2023-04-05T17:24:43;12.90;30.80
13707;DHT22;6925;47.816;13.072;2023-04-05T17:27:11;12.70;31.90
13707;DHT22;6925;47.816;13.072;2023-04-05T17:29:38;12.60;31.50
13707;DHT22;6925;47.816;13.072;2023-04-05T17:32:08;12.40;31.40
13707;DHT22;6925;47.816;13.072;2023-04-05T17:34:35;12.40;32.30
13707;DHT22;6925;47.816;13.072;2023-04-05T17:37:03;12.30;33.60
13707;DHT22;6925;47.816;13.072;2023-04-05T17:39:30;12.20;33.30
13707;DHT22;6925;47.816;13.072;2023-04-05T17:41:57;12.00;33.90
13707;DHT22;6925;47.816;13.072;2023-04-05T17:44:24;11.90;34.20
13707;DHT22;6925;47.816;13.072;2023-04-05T17:46:51;11.80;34.80
13707;DHT22;6925;47.816;13.072;2023-04-05T17:49:20;11.70;34.70
13707;DHT22;6925;47.816;13.072;2023-04-05T17:51:47;11.50;34.90
13707;DHT22;6925;47.816;13.072;2023-04-05T17:54:15;11.50;35.50
13707;DHT22;6925;47.816;13.072;2023-04-05T17:56:42;11.40;35.70
13707;DHT22;6925;47.816;13.072;2023-04-05T17:59:10;11.30;35.70
13707;DHT22;6925;47.816;13.072;2023-04-05T18:01:37;11.10;35.90
13707;DHT22;6925;47.816;13.072;2023-04-05T18:04:05;11.00;36.30
13707;DHT22;6925;47.816;13.072;2023-04-05T18:06:33;10.90;36.60
13707;DHT22;6925;47.816;13.072;2023-04-05T18:09:00;10.80;36.40
13707;DHT22;6925;47.816;13.072;2023-04-05T18:11:29;10.70;36.70
13707;DHT22;6925;47.816;13.072;2023-04-05T18:13:56;10.60;36.90
13707;DHT22;6925;47.816;13.072;2023-04-05T18:16:23;10.60;37.00
13707;DHT22;6925;47.816;13.072;2023-04-05T18:18:50;10.50;36.80
13707;DHT22;6925;47.816;13.072;2023-04-05T18:21:18;10.40;36.80
13707;DHT22;6925;47.816;13.072;2023-04-05T18:23:46;10.20;36.40
13707;DHT22;6925;47.816;13.072;2023-04-05T18:26:14;10.10;36.40
13707;DHT22;6925;47.816;13.072;2023-04-05T18:28:57;10.10;36.70
13707;DHT22;6925;47.816;13.072;2023-04-05T18:31:25;10.00;36.90
13707;DHT22;6925;47.816;13.072;2023-04-05T18:34:12;9.90;37.10
13707;DHT22;6925;47.816;13.072;2023-04-05T18:36:43;9.80;37.30
13707;DHT22;6925;47.816;13.072;2023-04-05T18:39:13;9.70;37.60
13707;DHT22;6925;47.816;13.072;2023-04-05T18:41:50;9.60;37.40
13707;DHT22;6925;47.816;13.072;2023-04-05T18:44:20;9.50;37.20
13707;DHT22;6925;47.816;13.072;2023-04-05T18:46:51;9.30;37.40
13707;DHT22;6925;47.816;13.072;2023-04-05T18:49:30;9.20;37.70
13707;DHT22;6925;47.816;13.072;2023-04-05T18:52:01;9.10;37.80
13707;DHT22;6925;47.816;13.072;2023-04-05T18:54:34;8.90;37.70
13707;DHT22;6925;47.816;13.072;2023-04-05T18:57:05;8.90;38.00
13707;DHT22;6925;47.816;13.072;2023-04-05T18:59:35;8.80;38.00
13707;DHT22;6925;47.816;13.072;2023-04-05T19:02:02;8.70;38.20
13707;DHT22;6925;47.816;13.072;2023-04-05T19:04:34;8.60;38.10
13707;DHT22;6925;47.816;13.072;2023-04-05T19:07:04;8.50;38.20
13707;DHT22;6925;47.816;13.072;2023-04-05T19:09:39;8.40;38.20
13707;DHT22;6925;47.816;13.072;2023-04-05T19:12:07;8.40;38.50
13707;DHT22;6925;47.816;13.072;2023-04-05T19:14:37;8.40;38.00
13707;DHT22;6925;47.816;13.072;2023-04-05T19:17:07;8.40;37.90
13707;DHT22;6925;47.816;13.072;2023-04-05T19:19:37;8.30;38.10
13707;DHT22;6925;47.816;13.072;2023-04-05T19:22:05;8.30;38.40
13707;DHT22;6925;47.816;13.072;2023-04-05T19:24:39;8.30;38.40
13707;DHT22;6925;47.816;13.072;2023-04-05T19:27:07;8.30;38.10
13707;DHT22;6925;47.816;13.072;2023-04-05T19:29:34;8.20;38.40
13707;DHT22;6925;47.816;13.072;2023-04-05T19:32:02;8.10;38.40
13707;DHT22;6925;47.816;13.072;2023-04-05T19:34:30;8.10;38.90
13707;DHT22;6925;47.816;13.072;2023-04-05T19:36:58;8.00;39.60
13707;DHT22;6925;47.816;13.072;2023-04-05T19:39:26;7.90;40.10
13707;DHT22;6925;47.816;13.072;2023-04-05T19:41:55;7.90;40.10
13707;DHT22;6925;47.816;13.072;2023-04-05T19:44:41;7.80;40.40
13707;DHT22;6925;47.816;13.072;2023-04-05T19:47:13;7.80;40.60
13707;DHT22;6925;47.816;13.072;2023-04-05T19:49:41;7.70;40.90
13707;DHT22;6925;47.816;13.072;2023-04-05T19:52:11;7.70;41.40
13707;DHT22;6925;47.816;13.072;2023-04-05T19:54:40;7.60;41.50
13707;DHT22;6925;47.816;13.072;2023-04-05T19:57:13;7.50;41.60
13707;DHT22;6925;47.816;13.072;2023-04-05T19:59:43;7.50;41.80
13707;DHT22;6925;47.816;13.072;2023-04-05T20:02:30;7.50;42.00
13707;DHT22;6925;47.816;13.072;2023-04-05T20:05:01;7.50;41.90
13707;DHT22;6925;47.816;13.072;2023-04-05T20:07:28;7.50;42.20
13707;DHT22;6925;47.816;13.072;2023-04-05T20:09:55;7.40;42.40
13707;DHT22;6925;47.816;13.072;2023-04-05T20:12:24;7.30;42.60
13707;DHT22;6925;47.816;13.072;2023-04-05T20:14:51;7.20;42.60
13707;DHT22;6925;47.816;13.072;2023-04-05T20:17:18;7.10;42.70
13707;DHT22;6925;47.816;13.072;2023-04-05T20:19:55;7.10;43.00
13707;DHT22;6925;47.816;13.072;2023-04-05T20:22:25;7.00;43.50
13707;DHT22;6925;47.816;13.072;2023-04-05T20:24:53;7.00;43.10
13707;DHT22;6925;47.816;13.072;2023-04-05T20:27:20;7.00;43.30
13707;DHT22;6925;47.816;13.072;2023-04-05T20:29:49;6.90;43.30
13707;DHT22;6925;47.816;13.072;2023-04-05T20:32:17;6.80;43.60
13707;DHT22;6925;47.816;13.072;2023-04-05T20:34:44;6.70;43.90
13707;DHT22;6925;47.816;13.072;2023-04-05T20:37:11;6.70;43.80
13707;DHT22;6925;47.816;13.072;2023-04-05T20:39:38;6.50;43.70
13707;DHT22;6925;47.816;13.072;2023-04-05T20:42:05;6.50;44.00
13707;DHT22;6925;47.816;13.072;2023-04-05T20:44:34;6.40;44.70
13707;DHT22;6925;47.816;13.072;2023-04-05T20:47:03;6.40;45.00
13707;DHT22;6925;47.816;13.072;2023-04-05T20:49:30;6.40;44.70
13707;DHT22;6925;47.816;13.072;2023-04-05T20:51:58;6.30;44.30
13707;DHT22;6925;47.816;13.072;2023-04-05T20:54:29;6.30;45.00
13707;DHT22;6925;47.816;13.072;2023-04-05T20:56:56;6.30;44.60
13707;DHT22;6925;47.816;13.072;2023-04-05T20:59:24;6.30;44.70
13707;DHT22;6925;47.816;13.072;2023-04-05T21:01:52;6.20;44.10
13707;DHT22;6925;47.816;13.072;2023-04-05T21:04:20;6.10;44.50
13707;DHT22;6925;47.816;13.072;2023-04-05T21:06:47;6.00;44.70